Lanesboro, Iowa
Current Conditions -  °F | °C
As of 1:15 AM on Sunday 23 Nov 2014 (Local Time) from KCIN Reporting Station
Overcast Overcast  
Wind Chill: 52°   Ceiling: 700
Heat Index: 52°   Visibility: 10mi
Dew Point: 52°   Wind: 18mph
Humidity: 100%   Direction: 210°SSW
Pressure: 29.53"   Gusts: NA
Location:  42.18°N, 94.69°W
Report Text: KCIN 230715Z AUTO 21016KT 10SM OVC007 11/11 A2953 RMK AO2
Loading
Personal Weather Stations






























Interactive Weather Map New forecast layout! Learn more

10-Day Weather Forecast

Advertisements
Track Severe Weather on mobile